Apiuna, Brazil
Current Conditions -  °F | °C
As of 11:00 AM on Thursday 27 Nov 2014 (Local Time) from SBNF Reporting Station
Scattered Clouds Scattered Clouds  
Wind Chill: 81°   Ceiling: Unl
Heat Index: 83°   Visibility: 6mi
Dew Point: 68°   Wind: 6mph
Humidity: 65%   Direction: 290°WNW
Pressure: 29.91"   Gusts: NA
Location:  27.04°S, 49.39°W
Report Text: SBNF 271300Z 29005KT 9999 SCT028 27/20 Q1013
Loading
Personal Weather Stations






























Interactive Weather Map New forecast layout! Learn more

10-Day Weather Forecast

Advertisements
Track Severe Weather on mobile